Yuzhno-Sakhalinsk, Russia

11:52 AM VLAT on May 30, 2015 (GMT +1000)
Zima | | Change Station
CLOSE
Current Station
Personal Weather Station
Location: Yuzhno-Sakhalinsk, SAKHALIN OBLAST
Elevation: 276 ft
Nearby Weather Stations

Elev 276 ft 46.91 °N, 142.76 °E | Updated 11 minutes ago

Clear
Clear
69.4 °F
Feels Like 69.4 °F
N
3.0
Wind Variable Wind from East
Gusts 7.0 mph

Today
High -- | Low -- °F
--% Chance of Precip.
Yesterday
High -- | Low -- °F
Precip. -- in
4:40 AM 8:13 PM
Waxing Gibbous, 87% visible
Pressure 29.50 in
Visibility 6.2 miles
Clouds
Dew Point 54 °F
Humidity 59%
Rainfall 0.00 in
Snow Depth Not available.
UV Not available.
Pollen Not available.
Air Quality Not available.
Flu Activity Not available.
METAR UHSS 300130Z 18007MPS 9999 NSC 18/11 Q0999 R19/CLRD70 NOSIG RMK QFE748/0998

More Conditions Fewer Conditions

Pressure 29.50 in
Visibility 6.2 miles
Clouds
Dew Point 54 °F
Humidity 59%
Rainfall 0.00 in
Snow Depth Not available.
UV Not available.
Pollen Not available.
Air Quality Not available.
Flu Activity Not available.
METAR UHSS 300130Z 18007MPS 9999 NSC 18/11 Q0999 R19/CLRD70 NOSIG RMK QFE748/0998

More Conditions Fewer Conditions

10-Day Weather Forecast

Almanac

Astronomy

May. 30, 2015 Rise Set
Actual Time
Civil Twilight
Nautical Twilight
Astronomical Twilight
Moon
Length of Visible Light
Length of Day
Tomorrow will be .
, % of the Moon is Illuminated

Today's Extremes

Country Highs Country Lows

Community

WunderPhotos

Upload Photos

1,825,415 photos uploaded!

WunderBlogs® & News

Nearby

Air Quality

  Air Quality AQ Index Pollutant
Not available.

Snow Depth

Station Depth Elevation

Earthquake Activity

City Distance Mag. Time & Date
Minimum magnitude displayed is 2.5.

Coastal Water Temperatures

Place Temperature

Stations

Nearby Weather Stations

Station Location Temp. Windchill Dew Point Humidity Wind Precip. Elev Updated Type